sensor_id;sensor_type;location;lat;lon;timestamp;P1;durP1;ratioP1;P2;durP2;ratioP2
69034;SDS011;56091;55.756;37.412;2023-02-28T00:01:53;9.00;;;3.47;;
69034;SDS011;56091;55.756;37.412;2023-02-28T00:06:54;9.30;;;3.77;;
69034;SDS011;56091;55.756;37.412;2023-02-28T00:11:55;8.15;;;3.00;;
69034;SDS011;56091;55.756;37.412;2023-02-28T00:16:56;10.10;;;3.33;;
69034;SDS011;56091;55.756;37.412;2023-02-28T00:21:59;11.52;;;4.03;;
69034;SDS011;56091;55.756;37.412;2023-02-28T00:27:00;10.27;;;3.80;;
69034;SDS011;56091;55.756;37.412;2023-02-28T00:32:01;10.47;;;3.60;;
69034;SDS011;56091;55.756;37.412;2023-02-28T00:37:02;9.82;;;3.55;;
69034;SDS011;56091;55.756;37.412;2023-02-28T00:42:07;10.13;;;3.40;;
69034;SDS011;56091;55.756;37.412;2023-02-28T00:47:09;9.73;;;3.40;;
69034;SDS011;56091;55.756;37.412;2023-02-28T00:52:09;6.83;;;2.33;;
69034;SDS011;56091;55.756;37.412;2023-02-28T00:57:10;6.45;;;2.40;;
69034;SDS011;56091;55.756;37.412;2023-02-28T01:02:11;5.65;;;2.20;;
69034;SDS011;56091;55.756;37.412;2023-02-28T01:07:12;11.90;;;3.07;;
69034;SDS011;56091;55.756;37.412;2023-02-28T01:12:14;6.93;;;3.17;;
69034;SDS011;56091;55.756;37.412;2023-02-28T01:17:14;6.80;;;2.67;;
69034;SDS011;56091;55.756;37.412;2023-02-28T01:22:15;8.60;;;3.80;;
69034;SDS011;56091;55.756;37.412;2023-02-28T01:27:16;10.88;;;3.83;;
69034;SDS011;56091;55.756;37.412;2023-02-28T01:32:17;11.00;;;3.80;;
69034;SDS011;56091;55.756;37.412;2023-02-28T01:37:38;8.65;;;3.13;;
69034;SDS011;56091;55.756;37.412;2023-02-28T01:42:39;9.63;;;3.00;;
69034;SDS011;56091;55.756;37.412;2023-02-28T01:47:40;9.77;;;3.25;;
69034;SDS011;56091;55.756;37.412;2023-02-28T01:52:42;6.73;;;3.00;;
69034;SDS011;56091;55.756;37.412;2023-02-28T01:57:46;9.70;;;3.22;;
69034;SDS011;56091;55.756;37.412;2023-02-28T02:02:53;6.27;;;2.33;;
69034;SDS011;56091;55.756;37.412;2023-02-28T02:07:57;7.53;;;2.60;;
69034;SDS011;56091;55.756;37.412;2023-02-28T02:13:09;7.53;;;3.10;;
69034;SDS011;56091;55.756;37.412;2023-02-28T02:18:31;9.10;;;2.70;;
69034;SDS011;56091;55.756;37.412;2023-02-28T02:24:03;7.30;;;2.33;;
69034;SDS011;56091;55.756;37.412;2023-02-28T02:29:18;10.35;;;2.72;;
69034;SDS011;56091;55.756;37.412;2023-02-28T02:44:53;9.00;;;3.60;;
69034;SDS011;56091;55.756;37.412;2023-02-28T02:50:08;10.30;;;3.97;;
69034;SDS011;56091;55.756;37.412;2023-02-28T02:55:14;8.40;;;2.90;;
69034;SDS011;56091;55.756;37.412;2023-02-28T03:00:18;9.77;;;4.05;;
69034;SDS011;56091;55.756;37.412;2023-02-28T03:05:31;9.53;;;3.27;;
69034;SDS011;56091;55.756;37.412;2023-02-28T03:10:49;8.73;;;3.50;;
69034;SDS011;56091;55.756;37.412;2023-02-28T03:21:18;10.88;;;3.22;;
69034;SDS011;56091;55.756;37.412;2023-02-28T03:26:30;10.07;;;3.73;;
69034;SDS011;56091;55.756;37.412;2023-02-28T03:31:38;8.45;;;3.63;;
69034;SDS011;56091;55.756;37.412;2023-02-28T03:37:02;10.00;;;3.17;;
69034;SDS011;56091;55.756;37.412;2023-02-28T03:42:17;10.63;;;3.58;;
69034;SDS011;56091;55.756;37.412;2023-02-28T03:47:21;7.93;;;2.87;;
69034;SDS011;56091;55.756;37.412;2023-02-28T03:52:47;9.27;;;3.15;;
69034;SDS011;56091;55.756;37.412;2023-02-28T03:57:56;8.07;;;3.07;;
69034;SDS011;56091;55.756;37.412;2023-02-28T04:03:03;8.18;;;2.60;;
69034;SDS011;56091;55.756;37.412;2023-02-28T04:08:06;7.47;;;2.30;;
69034;SDS011;56091;55.756;37.412;2023-02-28T04:13:08;10.48;;;2.75;;
69034;SDS011;56091;55.756;37.412;2023-02-28T04:18:09;7.90;;;2.83;;
69034;SDS011;56091;55.756;37.412;2023-02-28T04:23:10;6.22;;;2.60;;
69034;SDS011;56091;55.756;37.412;2023-02-28T04:28:10;5.90;;;2.30;;
69034;SDS011;56091;55.756;37.412;2023-02-28T04:33:11;9.20;;;3.10;;
69034;SDS011;56091;55.756;37.412;2023-02-28T04:38:12;7.88;;;2.30;;
69034;SDS011;56091;55.756;37.412;2023-02-28T04:43:13;13.40;;;3.07;;
69034;SDS011;56091;55.756;37.412;2023-02-28T04:48:14;8.90;;;2.50;;
69034;SDS011;56091;55.756;37.412;2023-02-28T04:53:15;6.18;;;2.55;;
69034;SDS011;56091;55.756;37.412;2023-02-28T04:58:15;7.97;;;2.50;;
69034;SDS011;56091;55.756;37.412;2023-02-28T05:03:16;9.05;;;2.78;;
69034;SDS011;56091;55.756;37.412;2023-02-28T05:08:17;7.40;;;2.50;;
69034;SDS011;56091;55.756;37.412;2023-02-28T05:13:18;6.27;;;2.03;;
69034;SDS011;56091;55.756;37.412;2023-02-28T05:18:19;4.32;;;1.67;;
69034;SDS011;56091;55.756;37.412;2023-02-28T05:23:19;4.43;;;1.80;;
69034;SDS011;56091;55.756;37.412;2023-02-28T05:28:23;7.43;;;2.55;;
69034;SDS011;56091;55.756;37.412;2023-02-28T05:33:24;5.23;;;2.20;;
69034;SDS011;56091;55.756;37.412;2023-02-28T05:38:24;6.23;;;2.27;;
69034;SDS011;56091;55.756;37.412;2023-02-28T05:43:30;7.97;;;2.58;;
69034;SDS011;56091;55.756;37.412;2023-02-28T05:48:32;5.70;;;2.13;;
69034;SDS011;56091;55.756;37.412;2023-02-28T05:53:36;5.30;;;2.15;;
69034;SDS011;56091;55.756;37.412;2023-02-28T05:58:37;5.17;;;1.87;;
69034;SDS011;56091;55.756;37.412;2023-02-28T06:03:38;7.33;;;2.50;;
69034;SDS011;56091;55.756;37.412;2023-02-28T06:08:38;7.32;;;2.35;;
69034;SDS011;56091;55.756;37.412;2023-02-28T06:13:43;7.83;;;2.60;;
69034;SDS011;56091;55.756;37.412;2023-02-28T06:18:44;4.95;;;1.70;;
69034;SDS011;56091;55.756;37.412;2023-02-28T06:23:45;6.30;;;2.27;;
69034;SDS011;56091;55.756;37.412;2023-02-28T06:28:45;8.03;;;2.13;;
69034;SDS011;56091;55.756;37.412;2023-02-28T06:33:47;5.28;;;2.10;;
69034;SDS011;56091;55.756;37.412;2023-02-28T06:38:51;8.13;;;2.00;;
69034;SDS011;56091;55.756;37.412;2023-02-28T06:43:55;3.95;;;1.50;;
69034;SDS011;56091;55.756;37.412;2023-02-28T06:48:57;5.17;;;1.80;;
69034;SDS011;56091;55.756;37.412;2023-02-28T06:53:58;6.70;;;2.20;;
69034;SDS011;56091;55.756;37.412;2023-02-28T06:58:59;5.07;;;1.77;;
69034;SDS011;56091;55.756;37.412;2023-02-28T07:04:03;5.05;;;1.90;;
69034;SDS011;56091;55.756;37.412;2023-02-28T07:09:05;5.90;;;1.97;;
69034;SDS011;56091;55.756;37.412;2023-02-28T07:14:06;7.28;;;1.98;;
69034;SDS011;56091;55.756;37.412;2023-02-28T07:19:07;5.37;;;1.87;;
69034;SDS011;56091;55.756;37.412;2023-02-28T07:24:08;5.68;;;2.03;;
69034;SDS011;56091;55.756;37.412;2023-02-28T07:29:09;4.87;;;1.80;;
69034;SDS011;56091;55.756;37.412;2023-02-28T07:34:10;5.88;;;2.15;;
69034;SDS011;56091;55.756;37.412;2023-02-28T07:39:11;6.87;;;2.27;;
69034;SDS011;56091;55.756;37.412;2023-02-28T07:44:11;6.47;;;2.20;;
69034;SDS011;56091;55.756;37.412;2023-02-28T07:49:12;6.70;;;2.13;;
69034;SDS011;56091;55.756;37.412;2023-02-28T07:54:13;4.47;;;2.00;;
69034;SDS011;56091;55.756;37.412;2023-02-28T07:59:13;5.20;;;2.00;;
69034;SDS011;56091;55.756;37.412;2023-02-28T08:04:14;7.63;;;2.90;;
69034;SDS011;56091;55.756;37.412;2023-02-28T08:09:15;6.23;;;2.47;;
69034;SDS011;56091;55.756;37.412;2023-02-28T08:14:16;8.97;;;2.30;;
69034;SDS011;56091;55.756;37.412;2023-02-28T08:19:16;6.25;;;2.10;;
69034;SDS011;56091;55.756;37.412;2023-02-28T08:24:17;5.97;;;2.13;;
69034;SDS011;56091;55.756;37.412;2023-02-28T08:29:20;7.05;;;2.40;;
69034;SDS011;56091;55.756;37.412;2023-02-28T08:34:21;6.03;;;2.37;;
69034;SDS011;56091;55.756;37.412;2023-02-28T08:39:25;5.50;;;2.03;;
69034;SDS011;56091;55.756;37.412;2023-02-28T08:44:25;6.07;;;1.97;;
69034;SDS011;56091;55.756;37.412;2023-02-28T08:49:27;5.63;;;2.03;;
69034;SDS011;56091;55.756;37.412;2023-02-28T08:54:28;5.13;;;1.95;;
69034;SDS011;56091;55.756;37.412;2023-02-28T08:59:31;5.73;;;2.00;;
69034;SDS011;56091;55.756;37.412;2023-02-28T09:04:33;9.02;;;1.98;;
69034;SDS011;56091;55.756;37.412;2023-02-28T09:09:34;6.93;;;2.40;;
69034;SDS011;56091;55.756;37.412;2023-02-28T09:14:37;4.65;;;1.85;;
69034;SDS011;56091;55.756;37.412;2023-02-28T09:19:38;4.17;;;1.57;;
69034;SDS011;56091;55.756;37.412;2023-02-28T09:24:39;4.75;;;1.83;;
69034;SDS011;56091;55.756;37.412;2023-02-28T09:29:39;5.13;;;2.08;;
69034;SDS011;56091;55.756;37.412;2023-02-28T09:34:40;5.83;;;2.10;;
69034;SDS011;56091;55.756;37.412;2023-02-28T09:39:41;8.13;;;2.70;;
69034;SDS011;56091;55.756;37.412;2023-02-28T09:44:43;7.27;;;2.30;;
69034;SDS011;56091;55.756;37.412;2023-02-28T09:49:47;6.55;;;2.28;;
69034;SDS011;56091;55.756;37.412;2023-02-28T09:54:49;3.35;;;1.40;;
69034;SDS011;56091;55.756;37.412;2023-02-28T10:05:00;6.20;;;1.98;;
69034;SDS011;56091;55.756;37.412;2023-02-28T10:15:31;5.38;;;1.95;;
69034;SDS011;56091;55.756;37.412;2023-02-28T10:20:37;5.90;;;2.00;;
69034;SDS011;56091;55.756;37.412;2023-02-28T10:25:44;7.15;;;2.50;;
69034;SDS011;56091;55.756;37.412;2023-02-28T10:30:52;9.27;;;2.20;;
69034;SDS011;56091;55.756;37.412;2023-02-28T10:35:54;6.45;;;1.80;;
69034;SDS011;56091;55.756;37.412;2023-02-28T10:41:06;7.87;;;2.23;;
69034;SDS011;56091;55.756;37.412;2023-02-28T10:51:10;5.80;;;2.10;;
69034;SDS011;56091;55.756;37.412;2023-02-28T11:06:36;6.70;;;2.42;;
69034;SDS011;56091;55.756;37.412;2023-02-28T11:11:43;8.77;;;1.90;;
69034;SDS011;56091;55.756;37.412;2023-02-28T11:16:47;7.00;;;2.60;;
69034;SDS011;56091;55.756;37.412;2023-02-28T11:21:52;6.60;;;2.38;;
69034;SDS011;56091;55.756;37.412;2023-02-28T11:26:57;6.32;;;2.20;;
69034;SDS011;56091;55.756;37.412;2023-02-28T11:37:20;6.38;;;2.28;;
69034;SDS011;56091;55.756;37.412;2023-02-28T11:48:04;8.75;;;2.47;;
69034;SDS011;56091;55.756;37.412;2023-02-28T11:53:05;7.35;;;2.40;;
69034;SDS011;56091;55.756;37.412;2023-02-28T11:58:31;6.22;;;2.70;;
69034;SDS011;56091;55.756;37.412;2023-02-28T12:03:44;9.27;;;3.20;;
69034;SDS011;56091;55.756;37.412;2023-02-28T12:14:23;6.30;;;2.33;;
69034;SDS011;56091;55.756;37.412;2023-02-28T12:30:44;8.32;;;3.35;;
69034;SDS011;56091;55.756;37.412;2023-02-28T12:35:53;7.53;;;2.85;;
69034;SDS011;56091;55.756;37.412;2023-02-28T12:41:00;9.30;;;3.13;;
69034;SDS011;56091;55.756;37.412;2023-02-28T12:46:14;8.57;;;3.30;;
69034;SDS011;56091;55.756;37.412;2023-02-28T12:51:15;7.03;;;2.45;;
69034;SDS011;56091;55.756;37.412;2023-02-28T13:12:15;7.70;;;3.00;;
69034;SDS011;56091;55.756;37.412;2023-02-28T13:17:20;5.80;;;2.50;;
69034;SDS011;56091;55.756;37.412;2023-02-28T13:27:37;6.20;;;2.67;;
69034;SDS011;56091;55.756;37.412;2023-02-28T13:32:39;8.40;;;3.00;;
69034;SDS011;56091;55.756;37.412;2023-02-28T13:37:43;8.07;;;2.88;;
69034;SDS011;56091;55.756;37.412;2023-02-28T13:42:50;6.25;;;2.45;;
69034;SDS011;56091;55.756;37.412;2023-02-28T14:09:25;7.30;;;2.60;;
69034;SDS011;56091;55.756;37.412;2023-02-28T14:19:38;6.43;;;2.13;;
69034;SDS011;56091;55.756;37.412;2023-02-28T14:24:47;7.17;;;2.97;;
69034;SDS011;56091;55.756;37.412;2023-02-28T14:35:34;7.70;;;3.07;;
69034;SDS011;56091;55.756;37.412;2023-02-28T14:40:39;6.57;;;2.45;;
69034;SDS011;56091;55.756;37.412;2023-02-28T14:45:42;7.27;;;3.00;;
69034;SDS011;56091;55.756;37.412;2023-02-28T14:50:48;9.25;;;3.25;;
69034;SDS011;56091;55.756;37.412;2023-02-28T14:55:51;6.67;;;2.83;;
69034;SDS011;56091;55.756;37.412;2023-02-28T15:00:54;10.05;;;4.13;;
69034;SDS011;56091;55.756;37.412;2023-02-28T15:05:58;10.93;;;3.93;;
69034;SDS011;56091;55.756;37.412;2023-02-28T15:11:07;8.40;;;3.53;;
69034;SDS011;56091;55.756;37.412;2023-02-28T15:21:26;8.32;;;2.80;;
69034;SDS011;56091;55.756;37.412;2023-02-28T15:26:36;6.53;;;2.70;;
69034;SDS011;56091;55.756;37.412;2023-02-28T15:31:57;8.13;;;3.30;;
69034;SDS011;56091;55.756;37.412;2023-02-28T15:37:01;7.37;;;2.83;;
69034;SDS011;56091;55.756;37.412;2023-02-28T15:47:31;7.80;;;3.33;;
69034;SDS011;56091;55.756;37.412;2023-02-28T15:52:34;10.27;;;3.63;;
69034;SDS011;56091;55.756;37.412;2023-02-28T15:57:40;9.33;;;3.47;;
69034;SDS011;56091;55.756;37.412;2023-02-28T16:02:41;7.75;;;2.53;;
69034;SDS011;56091;55.756;37.412;2023-02-28T16:07:44;7.23;;;2.80;;
69034;SDS011;56091;55.756;37.412;2023-02-28T16:12:45;6.90;;;2.42;;
69034;SDS011;56091;55.756;37.412;2023-02-28T16:17:50;7.37;;;2.67;;
69034;SDS011;56091;55.756;37.412;2023-02-28T16:22:51;5.07;;;1.70;;
69034;SDS011;56091;55.756;37.412;2023-02-28T16:27:52;5.87;;;2.37;;
69034;SDS011;56091;55.756;37.412;2023-02-28T16:32:55;7.72;;;2.38;;
69034;SDS011;56091;55.756;37.412;2023-02-28T16:37:56;7.77;;;3.13;;
69034;SDS011;56091;55.756;37.412;2023-02-28T16:42:57;6.25;;;2.30;;
69034;SDS011;56091;55.756;37.412;2023-02-28T16:48:00;5.83;;;2.27;;
69034;SDS011;56091;55.756;37.412;2023-02-28T16:53:01;5.80;;;2.20;;
69034;SDS011;56091;55.756;37.412;2023-02-28T16:58:03;4.70;;;1.70;;
69034;SDS011;56091;55.756;37.412;2023-02-28T17:03:04;9.55;;;2.60;;
69034;SDS011;56091;55.756;37.412;2023-02-28T17:08:09;9.55;;;2.97;;
69034;SDS011;56091;55.756;37.412;2023-02-28T17:13:19;6.38;;;2.38;;
69034;SDS011;56091;55.756;37.412;2023-02-28T17:18:21;4.35;;;1.80;;
69034;SDS011;56091;55.756;37.412;2023-02-28T17:23:27;5.75;;;1.42;;
69034;SDS011;56091;55.756;37.412;2023-02-28T17:28:27;3.33;;;1.20;;
69034;SDS011;56091;55.756;37.412;2023-02-28T17:33:28;3.80;;;1.37;;
69034;SDS011;56091;55.756;37.412;2023-02-28T17:38:29;4.28;;;1.35;;
69034;SDS011;56091;55.756;37.412;2023-02-28T17:43:30;3.93;;;1.37;;
69034;SDS011;56091;55.756;37.412;2023-02-28T17:48:31;4.03;;;1.40;;
69034;SDS011;56091;55.756;37.412;2023-02-28T17:53:33;4.65;;;1.77;;
69034;SDS011;56091;55.756;37.412;2023-02-28T17:58:34;6.57;;;2.00;;
69034;SDS011;56091;55.756;37.412;2023-02-28T18:03:35;5.93;;;1.90;;
69034;SDS011;56091;55.756;37.412;2023-02-28T18:08:35;5.70;;;1.92;;
69034;SDS011;56091;55.756;37.412;2023-02-28T18:13:36;4.67;;;1.30;;
69034;SDS011;56091;55.756;37.412;2023-02-28T18:18:37;2.58;;;0.95;;
69034;SDS011;56091;55.756;37.412;2023-02-28T18:23:38;2.87;;;0.97;;
69034;SDS011;56091;55.756;37.412;2023-02-28T18:28:47;3.72;;;1.00;;
69034;SDS011;56091;55.756;37.412;2023-02-28T18:33:48;3.83;;;0.90;;
69034;SDS011;56091;55.756;37.412;2023-02-28T18:38:51;2.00;;;0.85;;
69034;SDS011;56091;55.756;37.412;2023-02-28T18:43:52;3.63;;;1.07;;
69034;SDS011;56091;55.756;37.412;2023-02-28T18:48:53;2.40;;;0.90;;
69034;SDS011;56091;55.756;37.412;2023-02-28T18:53:55;7.97;;;1.77;;
69034;SDS011;56091;55.756;37.412;2023-02-28T18:58:56;4.38;;;1.30;;
69034;SDS011;56091;55.756;37.412;2023-02-28T19:04:03;6.33;;;1.30;;
69034;SDS011;56091;55.756;37.412;2023-02-28T19:09:04;6.30;;;1.20;;
69034;SDS011;56091;55.756;37.412;2023-02-28T19:14:07;3.77;;;1.27;;
69034;SDS011;56091;55.756;37.412;2023-02-28T19:19:09;5.57;;;1.70;;
69034;SDS011;56091;55.756;37.412;2023-02-28T19:24:13;5.23;;;1.20;;
69034;SDS011;56091;55.756;37.412;2023-02-28T19:29:14;3.47;;;1.20;;
69034;SDS011;56091;55.756;37.412;2023-02-28T19:34:14;1.58;;;0.80;;
69034;SDS011;56091;55.756;37.412;2023-02-28T19:39:15;2.43;;;0.87;;
69034;SDS011;56091;55.756;37.412;2023-02-28T19:44:18;2.22;;;0.93;;
69034;SDS011;56091;55.756;37.412;2023-02-28T19:49:19;2.77;;;1.00;;
69034;SDS011;56091;55.756;37.412;2023-02-28T19:54:20;1.65;;;0.70;;
69034;SDS011;56091;55.756;37.412;2023-02-28T19:59:23;3.67;;;1.05;;
69034;SDS011;56091;55.756;37.412;2023-02-28T20:04:25;14.13;;;1.70;;
69034;SDS011;56091;55.756;37.412;2023-02-28T20:09:29;3.80;;;1.15;;
69034;SDS011;56091;55.756;37.412;2023-02-28T20:14:31;1.77;;;0.77;;
69034;SDS011;56091;55.756;37.412;2023-02-28T20:19:32;2.97;;;1.00;;
69034;SDS011;56091;55.756;37.412;2023-02-28T20:24:32;1.77;;;0.77;;
69034;SDS011;56091;55.756;37.412;2023-02-28T20:29:36;3.30;;;0.98;;
69034;SDS011;56091;55.756;37.412;2023-02-28T20:34:36;2.03;;;0.70;;
69034;SDS011;56091;55.756;37.412;2023-02-28T20:39:37;3.08;;;0.80;;
69034;SDS011;56091;55.756;37.412;2023-02-28T20:44:38;2.67;;;0.70;;
69034;SDS011;56091;55.756;37.412;2023-02-28T20:49:39;2.33;;;0.80;;
69034;SDS011;56091;55.756;37.412;2023-02-28T20:54:39;5.68;;;1.00;;
69034;SDS011;56091;55.756;37.412;2023-02-28T20:59:40;4.23;;;1.10;;
69034;SDS011;56091;55.756;37.412;2023-02-28T21:04:41;1.40;;;0.73;;
69034;SDS011;56091;55.756;37.412;2023-02-28T21:09:42;1.85;;;0.88;;
69034;SDS011;56091;55.756;37.412;2023-02-28T21:14:43;3.27;;;0.90;;
69034;SDS011;56091;55.756;37.412;2023-02-28T21:19:43;5.97;;;0.98;;
69034;SDS011;56091;55.756;37.412;2023-02-28T21:24:44;1.10;;;0.70;;
69034;SDS011;56091;55.756;37.412;2023-02-28T21:29:45;4.03;;;1.00;;
69034;SDS011;56091;55.756;37.412;2023-02-28T21:34:46;2.47;;;1.00;;
69034;SDS011;56091;55.756;37.412;2023-02-28T21:39:47;1.63;;;1.00;;
69034;SDS011;56091;55.756;37.412;2023-02-28T21:44:47;1.90;;;1.00;;
69034;SDS011;56091;55.756;37.412;2023-02-28T21:49:49;4.10;;;1.03;;
69034;SDS011;56091;55.756;37.412;2023-02-28T21:54:50;4.40;;;1.00;;
69034;SDS011;56091;55.756;37.412;2023-02-28T21:59:51;2.63;;;0.90;;
69034;SDS011;56091;55.756;37.412;2023-02-28T22:04:52;3.22;;;0.85;;
69034;SDS011;56091;55.756;37.412;2023-02-28T22:09:52;5.23;;;1.20;;
69034;SDS011;56091;55.756;37.412;2023-02-28T22:14:53;1.40;;;0.70;;
69034;SDS011;56091;55.756;37.412;2023-02-28T22:19:54;3.28;;;1.00;;
69034;SDS011;56091;55.756;37.412;2023-02-28T22:24:56;2.37;;;0.87;;
69034;SDS011;56091;55.756;37.412;2023-02-28T22:29:58;4.68;;;1.02;;
69034;SDS011;56091;55.756;37.412;2023-02-28T22:34:58;2.13;;;0.90;;
69034;SDS011;56091;55.756;37.412;2023-02-28T22:39:59;1.90;;;0.70;;
69034;SDS011;56091;55.756;37.412;2023-02-28T22:45:01;4.65;;;1.00;;
69034;SDS011;56091;55.756;37.412;2023-02-28T22:50:03;3.03;;;1.00;;
69034;SDS011;56091;55.756;37.412;2023-02-28T22:55:05;2.33;;;0.90;;
69034;SDS011;56091;55.756;37.412;2023-02-28T23:00:10;4.77;;;0.93;;
69034;SDS011;56091;55.756;37.412;2023-02-28T23:05:17;3.38;;;0.90;;
69034;SDS011;56091;55.756;37.412;2023-02-28T23:10:18;3.73;;;0.97;;
69034;SDS011;56091;55.756;37.412;2023-02-28T23:15:20;1.00;;;0.60;;
69034;SDS011;56091;55.756;37.412;2023-02-28T23:20:21;1.20;;;0.70;;
69034;SDS011;56091;55.756;37.412;2023-02-28T23:25:22;2.03;;;0.88;;
69034;SDS011;56091;55.756;37.412;2023-02-28T23:30:23;2.90;;;0.70;;
69034;SDS011;56091;55.756;37.412;2023-02-28T23:35:29;3.17;;;1.00;;
69034;SDS011;56091;55.756;37.412;2023-02-28T23:40:31;1.73;;;0.70;;
69034;SDS011;56091;55.756;37.412;2023-02-28T23:45:32;1.48;;;0.80;;
69034;SDS011;56091;55.756;37.412;2023-02-28T23:50:35;3.38;;;0.80;;
69034;SDS011;56091;55.756;37.412;2023-02-28T23:55:37;3.57;;;0.80;;
